sensor_id;sensor_type;location;lat;lon;timestamp;P1;durP1;ratioP1;P2;durP2;ratioP2
68353;SDS011;55274;43.060;25.618;2022-12-18T00:01:04;13.90;;;5.20;;
68353;SDS011;55274;43.060;25.618;2022-12-18T00:03:38;12.80;;;5.18;;
68353;SDS011;55274;43.060;25.618;2022-12-18T00:06:04;10.85;;;5.22;;
68353;SDS011;55274;43.060;25.618;2022-12-18T00:08:30;9.75;;;4.85;;
68353;SDS011;55274;43.060;25.618;2022-12-18T00:10:55;9.65;;;5.45;;
68353;SDS011;55274;43.060;25.618;2022-12-18T00:13:33;11.38;;;5.35;;
68353;SDS011;55274;43.060;25.618;2022-12-18T00:16:07;10.88;;;5.47;;
68353;SDS011;55274;43.060;25.618;2022-12-18T00:18:45;10.55;;;5.05;;
68353;SDS011;55274;43.060;25.618;2022-12-18T00:21:12;8.80;;;4.53;;
68353;SDS011;55274;43.060;25.618;2022-12-18T00:23:39;11.98;;;4.78;;
68353;SDS011;55274;43.060;25.618;2022-12-18T00:26:07;8.57;;;4.50;;
68353;SDS011;55274;43.060;25.618;2022-12-18T00:28:53;11.20;;;4.93;;
68353;SDS011;55274;43.060;25.618;2022-12-18T00:31:22;10.82;;;4.82;;
68353;SDS011;55274;43.060;25.618;2022-12-18T00:33:49;8.55;;;4.63;;
68353;SDS011;55274;43.060;25.618;2022-12-18T00:36:16;9.80;;;4.85;;
68353;SDS011;55274;43.060;25.618;2022-12-18T00:38:44;8.43;;;4.50;;
68353;SDS011;55274;43.060;25.618;2022-12-18T00:41:11;10.23;;;4.53;;
68353;SDS011;55274;43.060;25.618;2022-12-18T00:43:38;7.70;;;4.45;;
68353;SDS011;55274;43.060;25.618;2022-12-18T00:46:05;10.40;;;4.95;;
68353;SDS011;55274;43.060;25.618;2022-12-18T00:48:31;8.25;;;4.43;;
68353;SDS011;55274;43.060;25.618;2022-12-18T00:50:57;9.82;;;4.47;;
68353;SDS011;55274;43.060;25.618;2022-12-18T00:53:23;7.85;;;4.80;;
68353;SDS011;55274;43.060;25.618;2022-12-18T00:55:49;11.30;;;5.10;;
68353;SDS011;55274;43.060;25.618;2022-12-18T00:58:15;8.18;;;4.72;;
68353;SDS011;55274;43.060;25.618;2022-12-18T01:00:42;8.13;;;4.80;;
68353;SDS011;55274;43.060;25.618;2022-12-18T01:03:08;7.95;;;4.50;;
68353;SDS011;55274;43.060;25.618;2022-12-18T01:05:39;8.98;;;4.70;;
68353;SDS011;55274;43.060;25.618;2022-12-18T01:08:05;9.60;;;5.03;;
68353;SDS011;55274;43.060;25.618;2022-12-18T01:10:31;9.40;;;4.88;;
68353;SDS011;55274;43.060;25.618;2022-12-18T01:12:57;9.77;;;4.07;;
68353;SDS011;55274;43.060;25.618;2022-12-18T01:15:23;10.00;;;4.38;;
68353;SDS011;55274;43.060;25.618;2022-12-18T01:17:49;7.88;;;3.83;;
68353;SDS011;55274;43.060;25.618;2022-12-18T01:20:17;8.63;;;3.83;;
68353;SDS011;55274;43.060;25.618;2022-12-18T01:22:43;10.30;;;4.70;;
68353;SDS011;55274;43.060;25.618;2022-12-18T01:25:09;8.32;;;4.95;;
68353;SDS011;55274;43.060;25.618;2022-12-18T01:27:35;10.35;;;4.32;;
68353;SDS011;55274;43.060;25.618;2022-12-18T01:30:00;7.90;;;4.60;;
68353;SDS011;55274;43.060;25.618;2022-12-18T01:32:29;8.32;;;4.65;;
68353;SDS011;55274;43.060;25.618;2022-12-18T01:34:55;9.23;;;4.72;;
68353;SDS011;55274;43.060;25.618;2022-12-18T01:37:21;10.45;;;5.05;;
68353;SDS011;55274;43.060;25.618;2022-12-18T01:39:47;10.27;;;4.90;;
68353;SDS011;55274;43.060;25.618;2022-12-18T01:42:14;8.48;;;4.32;;
68353;SDS011;55274;43.060;25.618;2022-12-18T01:47:42;9.32;;;4.75;;
68353;SDS011;55274;43.060;25.618;2022-12-18T01:50:13;7.95;;;3.97;;
68353;SDS011;55274;43.060;25.618;2022-12-18T01:52:43;10.48;;;4.72;;
68353;SDS011;55274;43.060;25.618;2022-12-18T01:55:13;8.18;;;4.50;;
68353;SDS011;55274;43.060;25.618;2022-12-18T01:57:42;8.10;;;4.72;;
68353;SDS011;55274;43.060;25.618;2022-12-18T02:00:09;6.47;;;3.78;;
68353;SDS011;55274;43.060;25.618;2022-12-18T02:02:39;8.07;;;4.50;;
68353;SDS011;55274;43.060;25.618;2022-12-18T02:05:06;10.48;;;5.15;;
68353;SDS011;55274;43.060;25.618;2022-12-18T02:07:45;7.45;;;3.70;;
68353;SDS011;55274;43.060;25.618;2022-12-18T02:10:34;8.00;;;4.05;;
68353;SDS011;55274;43.060;25.618;2022-12-18T02:13:20;8.15;;;3.80;;
68353;SDS011;55274;43.060;25.618;2022-12-18T02:15:54;7.43;;;4.40;;
68353;SDS011;55274;43.060;25.618;2022-12-18T02:18:38;9.80;;;4.80;;
68353;SDS011;55274;43.060;25.618;2022-12-18T02:24:16;9.73;;;4.50;;
68353;SDS011;55274;43.060;25.618;2022-12-18T02:26:56;11.05;;;4.90;;
68353;SDS011;55274;43.060;25.618;2022-12-18T02:29:27;9.63;;;4.90;;
68353;SDS011;55274;43.060;25.618;2022-12-18T02:31:59;9.55;;;4.15;;
68353;SDS011;55274;43.060;25.618;2022-12-18T02:34:29;9.02;;;4.30;;
68353;SDS011;55274;43.060;25.618;2022-12-18T02:36:58;7.65;;;4.05;;
68353;SDS011;55274;43.060;25.618;2022-12-18T02:39:27;8.65;;;4.15;;
68353;SDS011;55274;43.060;25.618;2022-12-18T02:41:56;7.10;;;4.15;;
68353;SDS011;55274;43.060;25.618;2022-12-18T02:44:23;8.25;;;3.95;;
68353;SDS011;55274;43.060;25.618;2022-12-18T02:46:50;9.63;;;4.10;;
68353;SDS011;55274;43.060;25.618;2022-12-18T02:57:40;8.60;;;4.10;;
68353;SDS011;55274;43.060;25.618;2022-12-18T03:00:14;7.82;;;3.92;;
68353;SDS011;55274;43.060;25.618;2022-12-18T03:02:53;8.20;;;3.70;;
68353;SDS011;55274;43.060;25.618;2022-12-18T03:05:43;9.93;;;4.32;;
68353;SDS011;55274;43.060;25.618;2022-12-18T03:08:14;8.80;;;4.40;;
68353;SDS011;55274;43.060;25.618;2022-12-18T03:10:58;9.80;;;4.38;;
68353;SDS011;55274;43.060;25.618;2022-12-18T03:13:47;7.80;;;4.40;;
68353;SDS011;55274;43.060;25.618;2022-12-18T03:16:22;7.95;;;4.57;;
68353;SDS011;55274;43.060;25.618;2022-12-18T03:19:05;9.68;;;4.65;;
68353;SDS011;55274;43.060;25.618;2022-12-18T03:21:40;9.38;;;4.50;;
68353;SDS011;55274;43.060;25.618;2022-12-18T03:24:10;10.27;;;4.65;;
68353;SDS011;55274;43.060;25.618;2022-12-18T03:26:37;9.15;;;4.55;;
68353;SDS011;55274;43.060;25.618;2022-12-18T03:29:09;10.45;;;4.57;;
68353;SDS011;55274;43.060;25.618;2022-12-18T03:31:42;9.63;;;4.53;;
68353;SDS011;55274;43.060;25.618;2022-12-18T03:34:15;8.30;;;4.10;;
68353;SDS011;55274;43.060;25.618;2022-12-18T03:36:46;13.65;;;5.32;;
68353;SDS011;55274;43.060;25.618;2022-12-18T03:39:13;10.70;;;5.00;;
68353;SDS011;55274;43.060;25.618;2022-12-18T03:49:57;14.05;;;5.57;;
68353;SDS011;55274;43.060;25.618;2022-12-18T03:52:48;16.38;;;7.97;;
68353;SDS011;55274;43.060;25.618;2022-12-18T03:55:31;13.40;;;5.40;;
68353;SDS011;55274;43.060;25.618;2022-12-18T03:57:59;11.75;;;5.00;;
68353;SDS011;55274;43.060;25.618;2022-12-18T04:00:27;11.32;;;5.55;;
68353;SDS011;55274;43.060;25.618;2022-12-18T04:02:55;12.18;;;5.07;;
68353;SDS011;55274;43.060;25.618;2022-12-18T04:05:24;12.75;;;5.90;;
68353;SDS011;55274;43.060;25.618;2022-12-18T04:07:51;11.65;;;5.75;;
68353;SDS011;55274;43.060;25.618;2022-12-18T04:10:19;16.52;;;8.27;;
68353;SDS011;55274;43.060;25.618;2022-12-18T04:12:45;15.43;;;7.85;;
68353;SDS011;55274;43.060;25.618;2022-12-18T04:15:11;13.70;;;7.28;;
68353;SDS011;55274;43.060;25.618;2022-12-18T04:17:38;18.40;;;8.15;;
68353;SDS011;55274;43.060;25.618;2022-12-18T04:20:07;23.20;;;10.38;;
68353;SDS011;55274;43.060;25.618;2022-12-18T04:22:34;21.85;;;10.00;;
68353;SDS011;55274;43.060;25.618;2022-12-18T04:25:00;22.35;;;9.85;;
68353;SDS011;55274;43.060;25.618;2022-12-18T04:27:26;22.20;;;10.68;;
68353;SDS011;55274;43.060;25.618;2022-12-18T04:29:52;22.42;;;10.48;;
68353;SDS011;55274;43.060;25.618;2022-12-18T04:32:17;15.63;;;8.02;;
68353;SDS011;55274;43.060;25.618;2022-12-18T04:34:43;15.85;;;7.32;;
68353;SDS011;55274;43.060;25.618;2022-12-18T04:37:09;14.25;;;6.53;;
68353;SDS011;55274;43.060;25.618;2022-12-18T04:39:35;13.38;;;6.22;;
68353;SDS011;55274;43.060;25.618;2022-12-18T04:42:00;14.60;;;7.38;;
68353;SDS011;55274;43.060;25.618;2022-12-18T04:44:26;14.85;;;8.00;;
68353;SDS011;55274;43.060;25.618;2022-12-18T04:46:52;16.35;;;7.65;;
68353;SDS011;55274;43.060;25.618;2022-12-18T04:49:18;16.17;;;7.93;;
68353;SDS011;55274;43.060;25.618;2022-12-18T04:51:44;15.23;;;7.95;;
68353;SDS011;55274;43.060;25.618;2022-12-18T04:54:10;16.02;;;7.50;;
68353;SDS011;55274;43.060;25.618;2022-12-18T04:56:35;14.10;;;7.70;;
68353;SDS011;55274;43.060;25.618;2022-12-18T04:59:01;16.25;;;6.80;;
68353;SDS011;55274;43.060;25.618;2022-12-18T05:01:27;13.38;;;7.10;;
68353;SDS011;55274;43.060;25.618;2022-12-18T05:03:53;16.88;;;7.45;;
68353;SDS011;55274;43.060;25.618;2022-12-18T05:06:19;16.10;;;7.40;;
68353;SDS011;55274;43.060;25.618;2022-12-18T05:08:44;16.58;;;7.47;;
68353;SDS011;55274;43.060;25.618;2022-12-18T05:11:11;19.95;;;7.65;;
68353;SDS011;55274;43.060;25.618;2022-12-18T05:13:42;15.07;;;6.72;;
68353;SDS011;55274;43.060;25.618;2022-12-18T05:16:08;15.07;;;6.43;;
68353;SDS011;55274;43.060;25.618;2022-12-18T05:18:34;13.77;;;6.70;;
68353;SDS011;55274;43.060;25.618;2022-12-18T05:21:00;17.20;;;8.32;;
68353;SDS011;55274;43.060;25.618;2022-12-18T05:23:26;16.48;;;7.20;;
68353;SDS011;55274;43.060;25.618;2022-12-18T05:25:57;21.60;;;10.70;;
68353;SDS011;55274;43.060;25.618;2022-12-18T05:28:25;20.73;;;8.98;;
68353;SDS011;55274;43.060;25.618;2022-12-18T05:30:52;22.75;;;10.32;;
68353;SDS011;55274;43.060;25.618;2022-12-18T05:33:20;21.55;;;10.48;;
68353;SDS011;55274;43.060;25.618;2022-12-18T05:35:50;20.88;;;9.02;;
68353;SDS011;55274;43.060;25.618;2022-12-18T05:38:21;19.65;;;9.35;;
68353;SDS011;55274;43.060;25.618;2022-12-18T05:40:48;17.00;;;8.73;;
68353;SDS011;55274;43.060;25.618;2022-12-18T05:43:15;16.10;;;6.75;;
68353;SDS011;55274;43.060;25.618;2022-12-18T05:45:41;15.75;;;7.57;;
68353;SDS011;55274;43.060;25.618;2022-12-18T05:48:07;16.67;;;7.85;;
68353;SDS011;55274;43.060;25.618;2022-12-18T05:50:35;16.80;;;8.32;;
68353;SDS011;55274;43.060;25.618;2022-12-18T05:53:05;19.85;;;8.48;;
68353;SDS011;55274;43.060;25.618;2022-12-18T05:55:35;23.05;;;10.73;;
68353;SDS011;55274;43.060;25.618;2022-12-18T05:58:02;21.23;;;8.68;;
68353;SDS011;55274;43.060;25.618;2022-12-18T06:00:29;18.63;;;9.07;;
68353;SDS011;55274;43.060;25.618;2022-12-18T06:02:57;21.88;;;9.10;;
68353;SDS011;55274;43.060;25.618;2022-12-18T06:05:24;19.25;;;8.70;;
68353;SDS011;55274;43.060;25.618;2022-12-18T06:07:50;21.00;;;9.07;;
68353;SDS011;55274;43.060;25.618;2022-12-18T06:10:16;20.00;;;9.32;;
68353;SDS011;55274;43.060;25.618;2022-12-18T06:12:42;17.73;;;9.10;;
68353;SDS011;55274;43.060;25.618;2022-12-18T06:15:08;23.23;;;9.85;;
68353;SDS011;55274;43.060;25.618;2022-12-18T06:17:34;19.23;;;8.98;;
68353;SDS011;55274;43.060;25.618;2022-12-18T06:20:00;18.35;;;8.55;;
68353;SDS011;55274;43.060;25.618;2022-12-18T06:22:26;16.63;;;7.50;;
68353;SDS011;55274;43.060;25.618;2022-12-18T06:24:52;16.02;;;7.75;;
68353;SDS011;55274;43.060;25.618;2022-12-18T06:27:18;15.57;;;7.32;;
68353;SDS011;55274;43.060;25.618;2022-12-18T06:29:44;14.50;;;6.38;;
68353;SDS011;55274;43.060;25.618;2022-12-18T06:32:10;18.85;;;8.00;;
68353;SDS011;55274;43.060;25.618;2022-12-18T06:34:39;15.68;;;6.65;;
68353;SDS011;55274;43.060;25.618;2022-12-18T06:37:05;14.27;;;6.22;;
68353;SDS011;55274;43.060;25.618;2022-12-18T06:39:31;13.57;;;6.25;;
68353;SDS011;55274;43.060;25.618;2022-12-18T06:41:57;13.85;;;5.88;;
68353;SDS011;55274;43.060;25.618;2022-12-18T06:44:22;10.80;;;5.35;;
68353;SDS011;55274;43.060;25.618;2022-12-18T06:46:48;11.70;;;5.95;;
68353;SDS011;55274;43.060;25.618;2022-12-18T06:49:14;12.63;;;6.00;;
68353;SDS011;55274;43.060;25.618;2022-12-18T06:51:41;11.90;;;5.97;;
68353;SDS011;55274;43.060;25.618;2022-12-18T06:54:07;12.57;;;5.47;;
68353;SDS011;55274;43.060;25.618;2022-12-18T06:56:33;10.50;;;5.40;;
68353;SDS011;55274;43.060;25.618;2022-12-18T06:58:59;14.82;;;6.18;;
68353;SDS011;55274;43.060;25.618;2022-12-18T07:01:25;12.30;;;5.50;;
68353;SDS011;55274;43.060;25.618;2022-12-18T07:03:52;11.52;;;5.47;;
68353;SDS011;55274;43.060;25.618;2022-12-18T07:06:21;13.30;;;5.57;;
68353;SDS011;55274;43.060;25.618;2022-12-18T07:08:48;12.68;;;6.18;;
68353;SDS011;55274;43.060;25.618;2022-12-18T07:11:14;15.07;;;6.60;;
68353;SDS011;55274;43.060;25.618;2022-12-18T07:13:41;14.07;;;6.38;;
68353;SDS011;55274;43.060;25.618;2022-12-18T07:16:14;15.02;;;6.07;;
68353;SDS011;55274;43.060;25.618;2022-12-18T07:18:41;13.07;;;6.10;;
68353;SDS011;55274;43.060;25.618;2022-12-18T07:21:08;16.88;;;7.60;;
68353;SDS011;55274;43.060;25.618;2022-12-18T07:23:35;15.68;;;7.20;;
68353;SDS011;55274;43.060;25.618;2022-12-18T07:26:05;13.93;;;6.10;;
68353;SDS011;55274;43.060;25.618;2022-12-18T07:28:33;15.90;;;7.22;;
68353;SDS011;55274;43.060;25.618;2022-12-18T07:31:09;15.07;;;7.07;;
68353;SDS011;55274;43.060;25.618;2022-12-18T07:33:40;14.38;;;6.18;;
68353;SDS011;55274;43.060;25.618;2022-12-18T07:36:06;15.25;;;7.25;;
68353;SDS011;55274;43.060;25.618;2022-12-18T07:38:34;14.75;;;6.85;;
68353;SDS011;55274;43.060;25.618;2022-12-18T07:41:05;14.00;;;7.10;;
68353;SDS011;55274;43.060;25.618;2022-12-18T07:43:33;16.00;;;6.85;;
68353;SDS011;55274;43.060;25.618;2022-12-18T07:45:59;14.85;;;6.80;;
68353;SDS011;55274;43.060;25.618;2022-12-18T07:48:25;17.02;;;7.18;;
68353;SDS011;55274;43.060;25.618;2022-12-18T07:50:52;15.65;;;6.75;;
68353;SDS011;55274;43.060;25.618;2022-12-18T07:53:18;14.02;;;6.88;;
68353;SDS011;55274;43.060;25.618;2022-12-18T07:55:44;15.75;;;7.43;;
68353;SDS011;55274;43.060;25.618;2022-12-18T07:58:09;12.02;;;6.57;;
68353;SDS011;55274;43.060;25.618;2022-12-18T08:00:35;17.83;;;7.20;;
68353;SDS011;55274;43.060;25.618;2022-12-18T08:03:01;16.73;;;7.30;;
68353;SDS011;55274;43.060;25.618;2022-12-18T08:05:27;15.55;;;7.75;;
68353;SDS011;55274;43.060;25.618;2022-12-18T08:07:53;19.05;;;7.03;;
68353;SDS011;55274;43.060;25.618;2022-12-18T08:10:19;15.68;;;7.60;;
68353;SDS011;55274;43.060;25.618;2022-12-18T08:12:48;14.70;;;7.05;;
68353;SDS011;55274;43.060;25.618;2022-12-18T08:15:14;14.02;;;6.47;;
68353;SDS011;55274;43.060;25.618;2022-12-18T08:17:40;14.70;;;7.00;;
68353;SDS011;55274;43.060;25.618;2022-12-18T08:20:06;15.65;;;7.90;;
68353;SDS011;55274;43.060;25.618;2022-12-18T08:22:36;14.05;;;6.55;;
68353;SDS011;55274;43.060;25.618;2022-12-18T08:27:30;13.32;;;6.63;;
68353;SDS011;55274;43.060;25.618;2022-12-18T08:29:56;13.88;;;6.03;;
68353;SDS011;55274;43.060;25.618;2022-12-18T08:32:23;11.98;;;5.53;;
68353;SDS011;55274;43.060;25.618;2022-12-18T08:34:49;12.73;;;6.10;;
68353;SDS011;55274;43.060;25.618;2022-12-18T08:37:15;11.15;;;5.45;;
68353;SDS011;55274;43.060;25.618;2022-12-18T08:39:41;11.80;;;5.65;;
68353;SDS011;55274;43.060;25.618;2022-12-18T08:42:07;11.95;;;5.68;;
68353;SDS011;55274;43.060;25.618;2022-12-18T08:44:51;12.55;;;5.70;;
68353;SDS011;55274;43.060;25.618;2022-12-18T08:47:17;11.00;;;5.07;;
68353;SDS011;55274;43.060;25.618;2022-12-18T08:49:42;12.00;;;6.00;;
68353;SDS011;55274;43.060;25.618;2022-12-18T08:52:08;12.90;;;5.88;;
68353;SDS011;55274;43.060;25.618;2022-12-18T08:54:34;14.43;;;5.93;;
68353;SDS011;55274;43.060;25.618;2022-12-18T08:57:00;17.65;;;6.25;;
68353;SDS011;55274;43.060;25.618;2022-12-18T08:59:25;11.85;;;5.38;;
68353;SDS011;55274;43.060;25.618;2022-12-18T09:01:54;14.07;;;6.03;;
68353;SDS011;55274;43.060;25.618;2022-12-18T09:04:20;19.90;;;6.95;;
68353;SDS011;55274;43.060;25.618;2022-12-18T09:06:47;13.25;;;6.35;;
68353;SDS011;55274;43.060;25.618;2022-12-18T09:09:12;15.18;;;6.88;;
68353;SDS011;55274;43.060;25.618;2022-12-18T09:11:38;16.85;;;5.97;;
68353;SDS011;55274;43.060;25.618;2022-12-18T09:14:04;14.88;;;6.47;;
68353;SDS011;55274;43.060;25.618;2022-12-18T09:16:30;14.40;;;6.30;;
68353;SDS011;55274;43.060;25.618;2022-12-18T09:18:57;17.20;;;6.53;;
68353;SDS011;55274;43.060;25.618;2022-12-18T09:23:57;23.80;;;10.32;;
68353;SDS011;55274;43.060;25.618;2022-12-18T09:26:24;18.95;;;8.10;;
68353;SDS011;55274;43.060;25.618;2022-12-18T09:28:51;18.88;;;8.82;;
68353;SDS011;55274;43.060;25.618;2022-12-18T09:31:19;20.50;;;8.57;;
68353;SDS011;55274;43.060;25.618;2022-12-18T09:33:46;18.17;;;7.63;;
68353;SDS011;55274;43.060;25.618;2022-12-18T09:36:12;18.70;;;7.15;;
68353;SDS011;55274;43.060;25.618;2022-12-18T09:38:39;12.25;;;5.25;;
68353;SDS011;55274;43.060;25.618;2022-12-18T09:41:15;15.43;;;6.60;;
68353;SDS011;55274;43.060;25.618;2022-12-18T09:43:50;12.95;;;6.38;;
68353;SDS011;55274;43.060;25.618;2022-12-18T09:46:20;12.40;;;6.57;;
68353;SDS011;55274;43.060;25.618;2022-12-18T09:48:52;14.18;;;6.55;;
68353;SDS011;55274;43.060;25.618;2022-12-18T09:51:27;12.82;;;6.43;;
68353;SDS011;55274;43.060;25.618;2022-12-18T09:53:58;16.05;;;7.10;;
68353;SDS011;55274;43.060;25.618;2022-12-18T09:56:29;13.70;;;6.57;;
68353;SDS011;55274;43.060;25.618;2022-12-18T09:58:59;15.48;;;6.40;;
68353;SDS011;55274;43.060;25.618;2022-12-18T10:01:27;18.13;;;6.90;;
68353;SDS011;55274;43.060;25.618;2022-12-18T10:03:54;15.57;;;7.07;;
68353;SDS011;55274;43.060;25.618;2022-12-18T10:12:08;15.10;;;6.82;;
68353;SDS011;55274;43.060;25.618;2022-12-18T10:15:07;14.93;;;7.25;;
68353;SDS011;55274;43.060;25.618;2022-12-18T10:20:39;14.18;;;6.40;;
68353;SDS011;55274;43.060;25.618;2022-12-18T10:26:05;17.75;;;7.95;;
68353;SDS011;55274;43.060;25.618;2022-12-18T10:28:34;13.32;;;6.32;;
68353;SDS011;55274;43.060;25.618;2022-12-18T10:31:02;13.40;;;6.32;;
68353;SDS011;55274;43.060;25.618;2022-12-18T10:33:30;14.00;;;6.32;;
68353;SDS011;55274;43.060;25.618;2022-12-18T10:35:57;12.80;;;6.07;;
68353;SDS011;55274;43.060;25.618;2022-12-18T10:38:25;11.85;;;5.50;;
68353;SDS011;55274;43.060;25.618;2022-12-18T10:43:25;10.73;;;5.55;;
68353;SDS011;55274;43.060;25.618;2022-12-18T10:46:04;12.55;;;5.53;;
68353;SDS011;55274;43.060;25.618;2022-12-18T10:48:31;17.98;;;5.85;;
68353;SDS011;55274;43.060;25.618;2022-12-18T10:50:59;12.48;;;5.63;;
68353;SDS011;55274;43.060;25.618;2022-12-18T10:53:26;15.25;;;6.22;;
68353;SDS011;55274;43.060;25.618;2022-12-18T10:55:54;14.30;;;6.65;;
68353;SDS011;55274;43.060;25.618;2022-12-18T11:04:15;19.58;;;6.88;;
68353;SDS011;55274;43.060;25.618;2022-12-18T11:06:16;11.73;;;5.95;;
68353;SDS011;55274;43.060;25.618;2022-12-18T11:11:27;14.05;;;6.18;;
68353;SDS011;55274;43.060;25.618;2022-12-18T11:13:57;12.77;;;5.55;;
68353;SDS011;55274;43.060;25.618;2022-12-18T11:16:34;12.38;;;5.40;;
68353;SDS011;55274;43.060;25.618;2022-12-18T11:21:55;11.30;;;5.20;;
68353;SDS011;55274;43.060;25.618;2022-12-18T11:24:27;11.02;;;6.07;;
68353;SDS011;55274;43.060;25.618;2022-12-18T11:26:53;12.98;;;5.47;;
68353;SDS011;55274;43.060;25.618;2022-12-18T11:29:24;16.23;;;5.32;;
68353;SDS011;55274;43.060;25.618;2022-12-18T11:34:52;12.23;;;5.63;;
68353;SDS011;55274;43.060;25.618;2022-12-18T11:37:46;11.40;;;4.97;;
68353;SDS011;55274;43.060;25.618;2022-12-18T11:40:20;11.30;;;5.15;;
68353;SDS011;55274;43.060;25.618;2022-12-18T11:45:53;14.45;;;5.47;;
68353;SDS011;55274;43.060;25.618;2022-12-18T11:48:45;11.77;;;5.40;;
68353;SDS011;55274;43.060;25.618;2022-12-18T11:51:15;12.48;;;5.20;;
68353;SDS011;55274;43.060;25.618;2022-12-18T11:53:51;11.13;;;4.57;;
68353;SDS011;55274;43.060;25.618;2022-12-18T12:15:17;16.85;;;6.38;;
68353;SDS011;55274;43.060;25.618;2022-12-18T12:21:19;16.27;;;7.18;;
68353;SDS011;55274;43.060;25.618;2022-12-18T12:26:57;14.93;;;7.07;;
68353;SDS011;55274;43.060;25.618;2022-12-18T12:29:30;16.77;;;6.88;;
68353;SDS011;55274;43.060;25.618;2022-12-18T12:32:11;20.05;;;7.78;;
68353;SDS011;55274;43.060;25.618;2022-12-18T12:40:20;15.27;;;6.88;;
68353;SDS011;55274;43.060;25.618;2022-12-18T12:42:52;19.92;;;7.68;;
68353;SDS011;55274;43.060;25.618;2022-12-18T12:45:41;18.65;;;7.40;;
68353;SDS011;55274;43.060;25.618;2022-12-18T12:48:20;15.68;;;7.00;;
68353;SDS011;55274;43.060;25.618;2022-12-18T12:51:15;19.73;;;7.43;;
68353;SDS011;55274;43.060;25.618;2022-12-18T12:53:52;23.85;;;7.57;;
68353;SDS011;55274;43.060;25.618;2022-12-18T12:56:21;17.42;;;7.03;;
68353;SDS011;55274;43.060;25.618;2022-12-18T12:59:10;18.70;;;7.20;;
68353;SDS011;55274;43.060;25.618;2022-12-18T13:07:09;15.18;;;6.50;;
68353;SDS011;55274;43.060;25.618;2022-12-18T13:10:11;17.42;;;7.35;;
68353;SDS011;55274;43.060;25.618;2022-12-18T13:20:34;19.70;;;6.85;;
68353;SDS011;55274;43.060;25.618;2022-12-18T13:28:20;18.75;;;8.00;;
68353;SDS011;55274;43.060;25.618;2022-12-18T13:31:09;19.17;;;7.85;;
68353;SDS011;55274;43.060;25.618;2022-12-18T13:38:42;24.38;;;8.20;;
68353;SDS011;55274;43.060;25.618;2022-12-18T13:43:42;16.52;;;6.90;;
68353;SDS011;55274;43.060;25.618;2022-12-18T13:49:00;18.67;;;6.90;;
68353;SDS011;55274;43.060;25.618;2022-12-18T13:51:44;17.38;;;7.38;;
68353;SDS011;55274;43.060;25.618;2022-12-18T13:59:54;21.13;;;7.95;;
68353;SDS011;55274;43.060;25.618;2022-12-18T14:02:22;20.00;;;7.97;;
68353;SDS011;55274;43.060;25.618;2022-12-18T14:04:50;17.45;;;7.32;;
68353;SDS011;55274;43.060;25.618;2022-12-18T14:07:23;22.23;;;7.85;;
68353;SDS011;55274;43.060;25.618;2022-12-18T14:10:00;25.13;;;9.88;;
68353;SDS011;55274;43.060;25.618;2022-12-18T14:12:29;18.00;;;8.13;;
68353;SDS011;55274;43.060;25.618;2022-12-18T14:18:43;22.58;;;9.07;;
68353;SDS011;55274;43.060;25.618;2022-12-18T14:20:50;22.02;;;8.93;;
68353;SDS011;55274;43.060;25.618;2022-12-18T14:23:30;21.85;;;9.63;;
68353;SDS011;55274;43.060;25.618;2022-12-18T14:26:01;24.38;;;9.45;;
68353;SDS011;55274;43.060;25.618;2022-12-18T14:28:28;22.35;;;9.63;;
68353;SDS011;55274;43.060;25.618;2022-12-18T14:30:54;20.05;;;8.75;;
68353;SDS011;55274;43.060;25.618;2022-12-18T14:33:25;25.05;;;9.45;;
68353;SDS011;55274;43.060;25.618;2022-12-18T14:35:59;18.50;;;8.13;;
68353;SDS011;55274;43.060;25.618;2022-12-18T14:40:52;20.70;;;9.05;;
68353;SDS011;55274;43.060;25.618;2022-12-18T14:43:38;19.80;;;8.05;;
68353;SDS011;55274;43.060;25.618;2022-12-18T14:46:51;19.42;;;9.32;;
68353;SDS011;55274;43.060;25.618;2022-12-18T14:48:58;21.77;;;9.20;;
68353;SDS011;55274;43.060;25.618;2022-12-18T14:51:29;17.38;;;7.90;;
68353;SDS011;55274;43.060;25.618;2022-12-18T14:54:06;22.65;;;8.77;;
68353;SDS011;55274;43.060;25.618;2022-12-18T14:56:45;18.50;;;7.78;;
68353;SDS011;55274;43.060;25.618;2022-12-18T14:59:19;26.35;;;7.93;;
68353;SDS011;55274;43.060;25.618;2022-12-18T15:04:26;20.02;;;8.27;;
68353;SDS011;55274;43.060;25.618;2022-12-18T15:09:39;21.65;;;8.23;;
68353;SDS011;55274;43.060;25.618;2022-12-18T15:13:08;19.17;;;8.40;;
68353;SDS011;55274;43.060;25.618;2022-12-18T15:15:04;17.08;;;7.90;;
68353;SDS011;55274;43.060;25.618;2022-12-18T15:17:30;19.45;;;9.00;;
68353;SDS011;55274;43.060;25.618;2022-12-18T15:20:00;22.02;;;8.77;;
68353;SDS011;55274;43.060;25.618;2022-12-18T15:22:33;19.55;;;8.25;;
68353;SDS011;55274;43.060;25.618;2022-12-18T15:25:01;20.80;;;8.95;;
68353;SDS011;55274;43.060;25.618;2022-12-18T15:27:33;22.45;;;8.68;;
68353;SDS011;55274;43.060;25.618;2022-12-18T15:32:36;21.58;;;9.10;;
68353;SDS011;55274;43.060;25.618;2022-12-18T15:35:24;24.67;;;9.20;;
68353;SDS011;55274;43.060;25.618;2022-12-18T15:37:50;20.17;;;8.85;;
68353;SDS011;55274;43.060;25.618;2022-12-18T15:40:21;21.08;;;8.77;;
68353;SDS011;55274;43.060;25.618;2022-12-18T15:42:50;21.40;;;8.80;;
68353;SDS011;55274;43.060;25.618;2022-12-18T15:45:37;20.52;;;8.98;;
68353;SDS011;55274;43.060;25.618;2022-12-18T15:48:08;21.88;;;8.48;;
68353;SDS011;55274;43.060;25.618;2022-12-18T15:50:42;18.70;;;8.23;;
68353;SDS011;55274;43.060;25.618;2022-12-18T15:53:08;19.10;;;8.18;;
68353;SDS011;55274;43.060;25.618;2022-12-18T15:55:34;19.42;;;8.57;;
68353;SDS011;55274;43.060;25.618;2022-12-18T15:58:18;20.42;;;8.82;;
68353;SDS011;55274;43.060;25.618;2022-12-18T16:00:45;24.92;;;9.55;;
68353;SDS011;55274;43.060;25.618;2022-12-18T16:03:11;22.98;;;9.27;;
68353;SDS011;55274;43.060;25.618;2022-12-18T16:05:37;21.05;;;8.80;;
68353;SDS011;55274;43.060;25.618;2022-12-18T16:08:03;22.83;;;9.25;;
68353;SDS011;55274;43.060;25.618;2022-12-18T16:10:29;23.48;;;8.98;;
68353;SDS011;55274;43.060;25.618;2022-12-18T16:12:55;23.02;;;9.27;;
68353;SDS011;55274;43.060;25.618;2022-12-18T16:15:21;23.88;;;8.95;;
68353;SDS011;55274;43.060;25.618;2022-12-18T16:17:47;22.15;;;9.27;;
68353;SDS011;55274;43.060;25.618;2022-12-18T16:22:43;24.52;;;10.52;;
68353;SDS011;55274;43.060;25.618;2022-12-18T16:25:21;23.27;;;9.55;;
68353;SDS011;55274;43.060;25.618;2022-12-18T16:27:49;24.65;;;10.15;;
68353;SDS011;55274;43.060;25.618;2022-12-18T16:30:17;26.50;;;9.20;;
68353;SDS011;55274;43.060;25.618;2022-12-18T16:32:45;22.30;;;9.25;;
68353;SDS011;55274;43.060;25.618;2022-12-18T16:35:11;27.88;;;9.70;;
68353;SDS011;55274;43.060;25.618;2022-12-18T16:37:38;24.38;;;9.65;;
68353;SDS011;55274;43.060;25.618;2022-12-18T16:40:06;23.02;;;8.75;;
68353;SDS011;55274;43.060;25.618;2022-12-18T16:42:34;25.52;;;9.63;;
68353;SDS011;55274;43.060;25.618;2022-12-18T16:45:01;23.85;;;9.27;;
68353;SDS011;55274;43.060;25.618;2022-12-18T16:47:27;22.75;;;9.10;;
68353;SDS011;55274;43.060;25.618;2022-12-18T16:49:52;21.77;;;8.93;;
68353;SDS011;55274;43.060;25.618;2022-12-18T16:52:18;25.65;;;10.32;;
68353;SDS011;55274;43.060;25.618;2022-12-18T16:54:45;26.65;;;9.85;;
68353;SDS011;55274;43.060;25.618;2022-12-18T16:57:15;25.17;;;9.77;;
68353;SDS011;55274;43.060;25.618;2022-12-18T16:59:42;24.38;;;8.85;;